sensor_id;sensor_type;location;lat;lon;timestamp;P1;durP1;ratioP1;P2;durP2;ratioP2
67352;SDS011;54238;52.278;21.056;2024-02-21T00:01:58;15.50;;;4.20;;
67352;SDS011;54238;52.278;21.056;2024-02-21T00:04:29;16.20;;;5.00;;
67352;SDS011;54238;52.278;21.056;2024-02-21T00:06:58;26.30;;;5.60;;
67352;SDS011;54238;52.278;21.056;2024-02-21T00:09:26;14.80;;;4.70;;
67352;SDS011;54238;52.278;21.056;2024-02-21T00:11:55;16.20;;;5.40;;
67352;SDS011;54238;52.278;21.056;2024-02-21T00:14:25;17.90;;;5.80;;
67352;SDS011;54238;52.278;21.056;2024-02-21T00:16:57;13.80;;;4.70;;
67352;SDS011;54238;52.278;21.056;2024-02-21T00:19:24;15.30;;;5.50;;
67352;SDS011;54238;52.278;21.056;2024-02-21T00:21:51;13.90;;;4.80;;
67352;SDS011;54238;52.278;21.056;2024-02-21T00:24:21;17.90;;;4.70;;
67352;SDS011;54238;52.278;21.056;2024-02-21T00:26:48;18.60;;;4.60;;
67352;SDS011;54238;52.278;21.056;2024-02-21T00:29:14;19.30;;;6.00;;
67352;SDS011;54238;52.278;21.056;2024-02-21T00:31:47;15.30;;;6.00;;
67352;SDS011;54238;52.278;21.056;2024-02-21T00:34:18;17.00;;;5.10;;
67352;SDS011;54238;52.278;21.056;2024-02-21T00:36:50;10.80;;;4.50;;
67352;SDS011;54238;52.278;21.056;2024-02-21T00:39:17;18.90;;;5.40;;
67352;SDS011;54238;52.278;21.056;2024-02-21T00:41:46;21.50;;;5.40;;
67352;SDS011;54238;52.278;21.056;2024-02-21T00:44:21;15.60;;;4.50;;
67352;SDS011;54238;52.278;21.056;2024-02-21T00:46:50;18.10;;;4.90;;
67352;SDS011;54238;52.278;21.056;2024-02-21T00:49:21;15.80;;;4.60;;
67352;SDS011;54238;52.278;21.056;2024-02-21T00:51:52;18.50;;;5.90;;
67352;SDS011;54238;52.278;21.056;2024-02-21T00:54:22;15.20;;;5.50;;
67352;SDS011;54238;52.278;21.056;2024-02-21T00:56:54;16.60;;;5.40;;
67352;SDS011;54238;52.278;21.056;2024-02-21T00:59:23;15.00;;;5.40;;
67352;SDS011;54238;52.278;21.056;2024-02-21T01:01:52;18.70;;;6.10;;
67352;SDS011;54238;52.278;21.056;2024-02-21T01:04:19;18.30;;;5.00;;
67352;SDS011;54238;52.278;21.056;2024-02-21T01:06:48;18.40;;;5.80;;
67352;SDS011;54238;52.278;21.056;2024-02-21T01:09:18;16.40;;;5.60;;
67352;SDS011;54238;52.278;21.056;2024-02-21T01:11:45;14.40;;;5.60;;
67352;SDS011;54238;52.278;21.056;2024-02-21T01:14:16;16.90;;;5.70;;
67352;SDS011;54238;52.278;21.056;2024-02-21T01:16:46;21.80;;;6.20;;
67352;SDS011;54238;52.278;21.056;2024-02-21T01:19:15;17.80;;;5.50;;
67352;SDS011;54238;52.278;21.056;2024-02-21T01:21:42;21.00;;;6.70;;
67352;SDS011;54238;52.278;21.056;2024-02-21T01:24:12;13.40;;;5.20;;
67352;SDS011;54238;52.278;21.056;2024-02-21T01:26:42;18.30;;;6.20;;
67352;SDS011;54238;52.278;21.056;2024-02-21T01:29:09;24.40;;;6.50;;
67352;SDS011;54238;52.278;21.056;2024-02-21T01:31:40;16.20;;;5.80;;
67352;SDS011;54238;52.278;21.056;2024-02-21T01:34:10;13.30;;;5.70;;
67352;SDS011;54238;52.278;21.056;2024-02-21T01:36:39;20.60;;;6.00;;
67352;SDS011;54238;52.278;21.056;2024-02-21T01:39:10;17.80;;;6.60;;
67352;SDS011;54238;52.278;21.056;2024-02-21T01:41:37;19.70;;;6.10;;
67352;SDS011;54238;52.278;21.056;2024-02-21T01:44:07;21.10;;;6.40;;
67352;SDS011;54238;52.278;21.056;2024-02-21T01:46:34;18.20;;;6.40;;
67352;SDS011;54238;52.278;21.056;2024-02-21T01:49:02;22.10;;;6.40;;
67352;SDS011;54238;52.278;21.056;2024-02-21T01:51:29;16.90;;;6.80;;
67352;SDS011;54238;52.278;21.056;2024-02-21T01:53:59;20.20;;;6.90;;
67352;SDS011;54238;52.278;21.056;2024-02-21T01:56:29;20.70;;;7.50;;
67352;SDS011;54238;52.278;21.056;2024-02-21T01:58:59;17.80;;;7.40;;
67352;SDS011;54238;52.278;21.056;2024-02-21T02:01:26;22.40;;;7.80;;
67352;SDS011;54238;52.278;21.056;2024-02-21T02:04:01;30.10;;;8.40;;
67352;SDS011;54238;52.278;21.056;2024-02-21T02:06:34;23.50;;;7.80;;
67352;SDS011;54238;52.278;21.056;2024-02-21T02:09:01;22.40;;;8.00;;
67352;SDS011;54238;52.278;21.056;2024-02-21T02:11:31;19.80;;;7.30;;
67352;SDS011;54238;52.278;21.056;2024-02-21T02:14:01;15.80;;;6.90;;
67352;SDS011;54238;52.278;21.056;2024-02-21T02:16:28;12.80;;;5.70;;
67352;SDS011;54238;52.278;21.056;2024-02-21T02:19:00;18.40;;;8.20;;
67352;SDS011;54238;52.278;21.056;2024-02-21T02:21:30;19.80;;;8.10;;
67352;SDS011;54238;52.278;21.056;2024-02-21T02:24:06;14.80;;;7.00;;
67352;SDS011;54238;52.278;21.056;2024-02-21T02:26:33;19.00;;;7.50;;
67352;SDS011;54238;52.278;21.056;2024-02-21T02:29:03;20.60;;;8.00;;
67352;SDS011;54238;52.278;21.056;2024-02-21T02:34:05;24.10;;;8.50;;
67352;SDS011;54238;52.278;21.056;2024-02-21T02:36:34;21.00;;;7.00;;
67352;SDS011;54238;52.278;21.056;2024-02-21T02:39:02;22.70;;;9.00;;
67352;SDS011;54238;52.278;21.056;2024-02-21T02:41:37;27.80;;;8.30;;
67352;SDS011;54238;52.278;21.056;2024-02-21T02:44:04;22.60;;;9.30;;
67352;SDS011;54238;52.278;21.056;2024-02-21T02:46:34;25.20;;;9.40;;
67352;SDS011;54238;52.278;21.056;2024-02-21T02:49:03;21.00;;;8.70;;
67352;SDS011;54238;52.278;21.056;2024-02-21T02:51:35;19.30;;;8.50;;
67352;SDS011;54238;52.278;21.056;2024-02-21T02:54:02;24.80;;;9.70;;
67352;SDS011;54238;52.278;21.056;2024-02-21T02:56:30;22.00;;;8.90;;
67352;SDS011;54238;52.278;21.056;2024-02-21T02:58:59;14.90;;;8.20;;
67352;SDS011;54238;52.278;21.056;2024-02-21T03:01:28;19.50;;;8.60;;
67352;SDS011;54238;52.278;21.056;2024-02-21T03:03:58;21.10;;;8.80;;
67352;SDS011;54238;52.278;21.056;2024-02-21T03:06:29;25.80;;;9.70;;
67352;SDS011;54238;52.278;21.056;2024-02-21T03:08:59;18.20;;;7.80;;
67352;SDS011;54238;52.278;21.056;2024-02-21T03:11:35;18.90;;;8.80;;
67352;SDS011;54238;52.278;21.056;2024-02-21T03:14:05;27.70;;;9.10;;
67352;SDS011;54238;52.278;21.056;2024-02-21T03:16:32;20.70;;;7.70;;
67352;SDS011;54238;52.278;21.056;2024-02-21T03:19:02;22.30;;;8.20;;
67352;SDS011;54238;52.278;21.056;2024-02-21T03:21:31;26.30;;;9.80;;
67352;SDS011;54238;52.278;21.056;2024-02-21T03:24:00;19.70;;;8.30;;
67352;SDS011;54238;52.278;21.056;2024-02-21T03:26:28;20.50;;;8.00;;
67352;SDS011;54238;52.278;21.056;2024-02-21T03:29:00;19.10;;;8.20;;
67352;SDS011;54238;52.278;21.056;2024-02-21T03:31:27;22.20;;;9.50;;
67352;SDS011;54238;52.278;21.056;2024-02-21T03:33:56;16.70;;;8.50;;
67352;SDS011;54238;52.278;21.056;2024-02-21T03:36:23;23.40;;;9.40;;
67352;SDS011;54238;52.278;21.056;2024-02-21T03:38:53;18.80;;;9.60;;
67352;SDS011;54238;52.278;21.056;2024-02-21T03:41:21;24.90;;;8.90;;
67352;SDS011;54238;52.278;21.056;2024-02-21T03:43:51;25.20;;;8.50;;
67352;SDS011;54238;52.278;21.056;2024-02-21T03:46:18;26.10;;;8.80;;
67352;SDS011;54238;52.278;21.056;2024-02-21T03:48:47;27.80;;;9.80;;
67352;SDS011;54238;52.278;21.056;2024-02-21T03:51:14;22.40;;;9.30;;
67352;SDS011;54238;52.278;21.056;2024-02-21T03:53:42;20.20;;;9.10;;
67352;SDS011;54238;52.278;21.056;2024-02-21T03:56:09;27.70;;;9.80;;
67352;SDS011;54238;52.278;21.056;2024-02-21T03:58:38;17.80;;;6.10;;
67352;SDS011;54238;52.278;21.056;2024-02-21T04:01:07;19.30;;;8.00;;
67352;SDS011;54238;52.278;21.056;2024-02-21T04:03:37;16.10;;;6.90;;
67352;SDS011;54238;52.278;21.056;2024-02-21T04:06:06;24.00;;;8.70;;
67352;SDS011;54238;52.278;21.056;2024-02-21T04:08:39;22.80;;;8.20;;
67352;SDS011;54238;52.278;21.056;2024-02-21T04:11:06;22.60;;;7.90;;
67352;SDS011;54238;52.278;21.056;2024-02-21T04:13:53;26.90;;;8.70;;
67352;SDS011;54238;52.278;21.056;2024-02-21T04:16:20;23.80;;;8.60;;
67352;SDS011;54238;52.278;21.056;2024-02-21T04:19:07;14.40;;;6.60;;
67352;SDS011;54238;52.278;21.056;2024-02-21T04:21:36;21.00;;;8.30;;
67352;SDS011;54238;52.278;21.056;2024-02-21T04:24:03;22.70;;;7.00;;
67352;SDS011;54238;52.278;21.056;2024-02-21T04:26:33;24.50;;;8.10;;
67352;SDS011;54238;52.278;21.056;2024-02-21T04:29:03;18.50;;;7.80;;
67352;SDS011;54238;52.278;21.056;2024-02-21T04:31:35;21.60;;;7.80;;
67352;SDS011;54238;52.278;21.056;2024-02-21T04:34:05;18.50;;;6.60;;
67352;SDS011;54238;52.278;21.056;2024-02-21T04:36:33;26.80;;;8.70;;
67352;SDS011;54238;52.278;21.056;2024-02-21T04:39:00;20.70;;;8.00;;
67352;SDS011;54238;52.278;21.056;2024-02-21T04:41:32;19.80;;;8.90;;
67352;SDS011;54238;52.278;21.056;2024-02-21T04:44:00;22.60;;;9.30;;
67352;SDS011;54238;52.278;21.056;2024-02-21T04:46:36;20.50;;;9.10;;
67352;SDS011;54238;52.278;21.056;2024-02-21T04:49:10;24.10;;;9.50;;
67352;SDS011;54238;52.278;21.056;2024-02-21T04:51:41;22.80;;;8.10;;
67352;SDS011;54238;52.278;21.056;2024-02-21T04:54:13;19.70;;;9.00;;
67352;SDS011;54238;52.278;21.056;2024-02-21T04:56:43;27.10;;;9.60;;
67352;SDS011;54238;52.278;21.056;2024-02-21T04:59:12;23.10;;;10.50;;
67352;SDS011;54238;52.278;21.056;2024-02-21T05:01:39;26.40;;;10.50;;
67352;SDS011;54238;52.278;21.056;2024-02-21T05:04:11;27.80;;;11.20;;
67352;SDS011;54238;52.278;21.056;2024-02-21T05:06:45;28.00;;;11.20;;
67352;SDS011;54238;52.278;21.056;2024-02-21T05:09:12;21.20;;;10.60;;
67352;SDS011;54238;52.278;21.056;2024-02-21T05:11:44;30.40;;;12.50;;
67352;SDS011;54238;52.278;21.056;2024-02-21T05:14:16;24.40;;;11.30;;
67352;SDS011;54238;52.278;21.056;2024-02-21T05:16:46;22.90;;;9.60;;
67352;SDS011;54238;52.278;21.056;2024-02-21T05:19:16;25.50;;;10.70;;
67352;SDS011;54238;52.278;21.056;2024-02-21T05:21:56;27.00;;;11.60;;
67352;SDS011;54238;52.278;21.056;2024-02-21T05:24:25;34.20;;;13.30;;
67352;SDS011;54238;52.278;21.056;2024-02-21T05:26:55;27.70;;;12.30;;
67352;SDS011;54238;52.278;21.056;2024-02-21T05:29:22;29.60;;;12.20;;
67352;SDS011;54238;52.278;21.056;2024-02-21T05:34:21;36.80;;;13.70;;
67352;SDS011;54238;52.278;21.056;2024-02-21T05:36:52;31.50;;;13.20;;
67352;SDS011;54238;52.278;21.056;2024-02-21T05:39:23;24.30;;;12.30;;
67352;SDS011;54238;52.278;21.056;2024-02-21T05:41:57;30.20;;;12.90;;
67352;SDS011;54238;52.278;21.056;2024-02-21T05:44:24;29.10;;;11.80;;
67352;SDS011;54238;52.278;21.056;2024-02-21T05:46:57;18.80;;;9.80;;
67352;SDS011;54238;52.278;21.056;2024-02-21T05:49:26;24.70;;;10.70;;
67352;SDS011;54238;52.278;21.056;2024-02-21T05:51:56;28.30;;;10.80;;
67352;SDS011;54238;52.278;21.056;2024-02-21T05:54:23;29.20;;;11.60;;
67352;SDS011;54238;52.278;21.056;2024-02-21T05:56:53;18.60;;;9.70;;
67352;SDS011;54238;52.278;21.056;2024-02-21T05:59:25;26.40;;;10.10;;
67352;SDS011;54238;52.278;21.056;2024-02-21T06:01:56;27.90;;;12.70;;
67352;SDS011;54238;52.278;21.056;2024-02-21T06:04:24;27.90;;;11.60;;
67352;SDS011;54238;52.278;21.056;2024-02-21T06:06:56;25.60;;;9.80;;
67352;SDS011;54238;52.278;21.056;2024-02-21T06:09:27;24.40;;;11.50;;
67352;SDS011;54238;52.278;21.056;2024-02-21T06:12:01;28.60;;;11.90;;
67352;SDS011;54238;52.278;21.056;2024-02-21T06:14:28;27.40;;;11.60;;
67352;SDS011;54238;52.278;21.056;2024-02-21T06:16:55;24.10;;;11.60;;
67352;SDS011;54238;52.278;21.056;2024-02-21T06:19:29;28.50;;;13.00;;
67352;SDS011;54238;52.278;21.056;2024-02-21T06:21:58;28.10;;;12.80;;
67352;SDS011;54238;52.278;21.056;2024-02-21T06:24:30;27.70;;;13.50;;
67352;SDS011;54238;52.278;21.056;2024-02-21T06:26:57;34.10;;;13.90;;
67352;SDS011;54238;52.278;21.056;2024-02-21T06:29:24;32.90;;;13.00;;
67352;SDS011;54238;52.278;21.056;2024-02-21T06:31:53;31.80;;;13.60;;
67352;SDS011;54238;52.278;21.056;2024-02-21T06:34:22;38.30;;;15.90;;
67352;SDS011;54238;52.278;21.056;2024-02-21T06:36:52;26.70;;;13.60;;
67352;SDS011;54238;52.278;21.056;2024-02-21T06:39:21;28.80;;;13.00;;
67352;SDS011;54238;52.278;21.056;2024-02-21T06:41:52;27.10;;;13.30;;
67352;SDS011;54238;52.278;21.056;2024-02-21T06:44:23;24.40;;;13.20;;
67352;SDS011;54238;52.278;21.056;2024-02-21T06:46:52;29.80;;;12.40;;
67352;SDS011;54238;52.278;21.056;2024-02-21T06:49:24;34.70;;;14.40;;
67352;SDS011;54238;52.278;21.056;2024-02-21T06:51:56;31.80;;;13.90;;
67352;SDS011;54238;52.278;21.056;2024-02-21T06:54:23;28.80;;;13.50;;
67352;SDS011;54238;52.278;21.056;2024-02-21T06:56:52;31.70;;;14.80;;
67352;SDS011;54238;52.278;21.056;2024-02-21T06:59:22;31.00;;;14.60;;
67352;SDS011;54238;52.278;21.056;2024-02-21T07:01:53;32.70;;;13.50;;
67352;SDS011;54238;52.278;21.056;2024-02-21T07:04:22;29.50;;;11.90;;
67352;SDS011;54238;52.278;21.056;2024-02-21T07:06:49;31.10;;;12.90;;
67352;SDS011;54238;52.278;21.056;2024-02-21T07:09:18;27.10;;;13.50;;
67352;SDS011;54238;52.278;21.056;2024-02-21T07:11:48;37.00;;;14.40;;
67352;SDS011;54238;52.278;21.056;2024-02-21T07:14:22;32.30;;;14.30;;
67352;SDS011;54238;52.278;21.056;2024-02-21T07:16:52;31.30;;;12.80;;
67352;SDS011;54238;52.278;21.056;2024-02-21T07:19:24;28.50;;;13.10;;
67352;SDS011;54238;52.278;21.056;2024-02-21T07:21:51;29.10;;;14.50;;
67352;SDS011;54238;52.278;21.056;2024-02-21T07:24:19;28.60;;;11.50;;
67352;SDS011;54238;52.278;21.056;2024-02-21T07:26:48;34.30;;;12.60;;
67352;SDS011;54238;52.278;21.056;2024-02-21T07:29:15;30.70;;;12.40;;
67352;SDS011;54238;52.278;21.056;2024-02-21T07:31:44;33.30;;;13.80;;
67352;SDS011;54238;52.278;21.056;2024-02-21T07:34:15;37.10;;;13.80;;
67352;SDS011;54238;52.278;21.056;2024-02-21T07:36:42;31.30;;;12.90;;
67352;SDS011;54238;52.278;21.056;2024-02-21T07:39:12;34.20;;;13.70;;
67352;SDS011;54238;52.278;21.056;2024-02-21T07:41:39;37.00;;;14.90;;
67352;SDS011;54238;52.278;21.056;2024-02-21T07:44:14;30.00;;;12.30;;
67352;SDS011;54238;52.278;21.056;2024-02-21T07:46:44;40.20;;;13.70;;
67352;SDS011;54238;52.278;21.056;2024-02-21T07:49:15;41.90;;;15.10;;
67352;SDS011;54238;52.278;21.056;2024-02-21T07:51:44;31.10;;;12.90;;
67352;SDS011;54238;52.278;21.056;2024-02-21T07:54:14;32.40;;;12.80;;
67352;SDS011;54238;52.278;21.056;2024-02-21T07:56:43;32.60;;;13.90;;
67352;SDS011;54238;52.278;21.056;2024-02-21T07:59:14;31.10;;;13.20;;
67352;SDS011;54238;52.278;21.056;2024-02-21T08:01:43;35.90;;;13.30;;
67352;SDS011;54238;52.278;21.056;2024-02-21T08:04:13;40.40;;;14.50;;
67352;SDS011;54238;52.278;21.056;2024-02-21T08:06:43;32.10;;;12.50;;
67352;SDS011;54238;52.278;21.056;2024-02-21T08:09:13;30.90;;;13.60;;
67352;SDS011;54238;52.278;21.056;2024-02-21T08:11:43;45.80;;;15.60;;
67352;SDS011;54238;52.278;21.056;2024-02-21T08:14:12;50.70;;;17.60;;
67352;SDS011;54238;52.278;21.056;2024-02-21T08:16:44;46.80;;;16.60;;
67352;SDS011;54238;52.278;21.056;2024-02-21T08:19:11;45.80;;;16.00;;
67352;SDS011;54238;52.278;21.056;2024-02-21T08:21:41;42.00;;;15.50;;
67352;SDS011;54238;52.278;21.056;2024-02-21T08:24:10;36.80;;;14.60;;
67352;SDS011;54238;52.278;21.056;2024-02-21T08:26:45;39.80;;;15.90;;
67352;SDS011;54238;52.278;21.056;2024-02-21T08:29:18;26.80;;;13.70;;
67352;SDS011;54238;52.278;21.056;2024-02-21T08:31:45;40.00;;;14.10;;
67352;SDS011;54238;52.278;21.056;2024-02-21T08:34:19;34.20;;;14.80;;
67352;SDS011;54238;52.278;21.056;2024-02-21T08:36:53;34.40;;;14.90;;
67352;SDS011;54238;52.278;21.056;2024-02-21T08:39:20;40.60;;;15.40;;
67352;SDS011;54238;52.278;21.056;2024-02-21T08:41:50;39.80;;;15.90;;
67352;SDS011;54238;52.278;21.056;2024-02-21T08:44:27;31.20;;;13.40;;
67352;SDS011;54238;52.278;21.056;2024-02-21T08:47:00;39.70;;;13.40;;
67352;SDS011;54238;52.278;21.056;2024-02-21T08:49:32;30.80;;;13.50;;
67352;SDS011;54238;52.278;21.056;2024-02-21T08:52:06;30.40;;;13.00;;
67352;SDS011;54238;52.278;21.056;2024-02-21T08:54:33;37.50;;;14.90;;
67352;SDS011;54238;52.278;21.056;2024-02-21T08:57:03;30.40;;;14.30;;
67352;SDS011;54238;52.278;21.056;2024-02-21T08:59:30;32.20;;;14.60;;
67352;SDS011;54238;52.278;21.056;2024-02-21T09:02:00;40.50;;;15.50;;
67352;SDS011;54238;52.278;21.056;2024-02-21T09:04:30;31.40;;;14.50;;
67352;SDS011;54238;52.278;21.056;2024-02-21T09:06:59;42.10;;;16.70;;
67352;SDS011;54238;52.278;21.056;2024-02-21T09:09:31;31.30;;;13.10;;
67352;SDS011;54238;52.278;21.056;2024-02-21T09:12:08;39.10;;;15.00;;
67352;SDS011;54238;52.278;21.056;2024-02-21T09:14:39;29.00;;;13.10;;
67352;SDS011;54238;52.278;21.056;2024-02-21T09:17:11;33.60;;;15.10;;
67352;SDS011;54238;52.278;21.056;2024-02-21T09:19:41;32.00;;;13.80;;
67352;SDS011;54238;52.278;21.056;2024-02-21T09:22:08;35.30;;;14.00;;
67352;SDS011;54238;52.278;21.056;2024-02-21T09:24:42;41.20;;;16.70;;
67352;SDS011;54238;52.278;21.056;2024-02-21T09:27:10;43.20;;;16.20;;
67352;SDS011;54238;52.278;21.056;2024-02-21T09:29:37;36.70;;;14.50;;
67352;SDS011;54238;52.278;21.056;2024-02-21T09:32:08;40.10;;;16.20;;
67352;SDS011;54238;52.278;21.056;2024-02-21T09:34:37;41.10;;;15.80;;
67352;SDS011;54238;52.278;21.056;2024-02-21T09:37:09;37.90;;;13.80;;
67352;SDS011;54238;52.278;21.056;2024-02-21T09:39:36;24.10;;;11.90;;
67352;SDS011;54238;52.278;21.056;2024-02-21T09:42:07;28.10;;;12.20;;
67352;SDS011;54238;52.278;21.056;2024-02-21T09:44:40;31.50;;;12.50;;
67352;SDS011;54238;52.278;21.056;2024-02-21T09:47:16;30.90;;;13.10;;
67352;SDS011;54238;52.278;21.056;2024-02-21T09:49:47;30.70;;;12.90;;
67352;SDS011;54238;52.278;21.056;2024-02-21T09:52:15;38.50;;;12.90;;
67352;SDS011;54238;52.278;21.056;2024-02-21T09:54:44;30.50;;;10.60;;
67352;SDS011;54238;52.278;21.056;2024-02-21T09:57:12;29.50;;;10.90;;
67352;SDS011;54238;52.278;21.056;2024-02-21T09:59:40;23.70;;;9.10;;
67352;SDS011;54238;52.278;21.056;2024-02-21T10:02:10;33.10;;;11.00;;
67352;SDS011;54238;52.278;21.056;2024-02-21T10:04:41;25.70;;;11.00;;
67352;SDS011;54238;52.278;21.056;2024-02-21T10:07:16;26.20;;;8.80;;
67352;SDS011;54238;52.278;21.056;2024-02-21T10:10:07;37.70;;;10.00;;
67352;SDS011;54238;52.278;21.056;2024-02-21T10:12:48;26.20;;;9.20;;
67352;SDS011;54238;52.278;21.056;2024-02-21T10:15:24;28.50;;;10.20;;
67352;SDS011;54238;52.278;21.056;2024-02-21T10:18:01;30.60;;;9.50;;
67352;SDS011;54238;52.278;21.056;2024-02-21T10:20:37;25.00;;;8.30;;
67352;SDS011;54238;52.278;21.056;2024-02-21T10:23:05;25.90;;;8.90;;
67352;SDS011;54238;52.278;21.056;2024-02-21T10:25:38;29.10;;;8.30;;
67352;SDS011;54238;52.278;21.056;2024-02-21T10:28:10;26.10;;;7.70;;
67352;SDS011;54238;52.278;21.056;2024-02-21T10:30:49;21.20;;;7.70;;
67352;SDS011;54238;52.278;21.056;2024-02-21T10:33:19;24.70;;;7.80;;
67352;SDS011;54238;52.278;21.056;2024-02-21T10:35:53;28.50;;;9.90;;
67352;SDS011;54238;52.278;21.056;2024-02-21T10:38:20;31.70;;;9.70;;
67352;SDS011;54238;52.278;21.056;2024-02-21T10:40:47;20.20;;;7.60;;
67352;SDS011;54238;52.278;21.056;2024-02-21T10:43:19;24.00;;;9.10;;
67352;SDS011;54238;52.278;21.056;2024-02-21T10:45:52;23.30;;;8.40;;
67352;SDS011;54238;52.278;21.056;2024-02-21T10:48:42;24.50;;;8.80;;
67352;SDS011;54238;52.278;21.056;2024-02-21T10:51:18;26.90;;;8.60;;
67352;SDS011;54238;52.278;21.056;2024-02-21T10:56:44;20.30;;;8.50;;
67352;SDS011;54238;52.278;21.056;2024-02-21T10:59:17;29.50;;;9.80;;
67352;SDS011;54238;52.278;21.056;2024-02-21T11:01:47;23.40;;;8.30;;
67352;SDS011;54238;52.278;21.056;2024-02-21T11:04:18;31.60;;;10.00;;
67352;SDS011;54238;52.278;21.056;2024-02-21T11:06:52;29.70;;;10.50;;
67352;SDS011;54238;52.278;21.056;2024-02-21T11:09:33;35.00;;;9.80;;
67352;SDS011;54238;52.278;21.056;2024-02-21T11:12:08;29.30;;;10.10;;
67352;SDS011;54238;52.278;21.056;2024-02-21T11:14:38;31.00;;;11.30;;
67352;SDS011;54238;52.278;21.056;2024-02-21T11:17:15;29.60;;;10.00;;
67352;SDS011;54238;52.278;21.056;2024-02-21T11:19:53;26.70;;;10.30;;
67352;SDS011;54238;52.278;21.056;2024-02-21T11:22:20;19.10;;;8.70;;
67352;SDS011;54238;52.278;21.056;2024-02-21T11:24:49;32.40;;;11.80;;
67352;SDS011;54238;52.278;21.056;2024-02-21T11:27:20;31.80;;;11.10;;
67352;SDS011;54238;52.278;21.056;2024-02-21T11:29:56;28.80;;;10.60;;
67352;SDS011;54238;52.278;21.056;2024-02-21T11:32:27;27.70;;;10.70;;
67352;SDS011;54238;52.278;21.056;2024-02-21T11:35:03;31.30;;;10.80;;
67352;SDS011;54238;52.278;21.056;2024-02-21T11:37:35;26.40;;;10.30;;
67352;SDS011;54238;52.278;21.056;2024-02-21T11:40:07;34.80;;;12.00;;
67352;SDS011;54238;52.278;21.056;2024-02-21T11:42:41;31.90;;;12.70;;
67352;SDS011;54238;52.278;21.056;2024-02-21T11:45:14;29.90;;;11.00;;
67352;SDS011;54238;52.278;21.056;2024-02-21T11:47:50;33.00;;;11.60;;
67352;SDS011;54238;52.278;21.056;2024-02-21T11:50:17;25.30;;;12.50;;
67352;SDS011;54238;52.278;21.056;2024-02-21T11:52:44;38.40;;;13.70;;
67352;SDS011;54238;52.278;21.056;2024-02-21T11:55:16;32.90;;;13.00;;
67352;SDS011;54238;52.278;21.056;2024-02-21T11:57:47;34.30;;;12.40;;
67352;SDS011;54238;52.278;21.056;2024-02-21T12:00:20;26.20;;;11.00;;
67352;SDS011;54238;52.278;21.056;2024-02-21T12:02:51;27.90;;;13.00;;
67352;SDS011;54238;52.278;21.056;2024-02-21T12:05:21;27.70;;;11.90;;
67352;SDS011;54238;52.278;21.056;2024-02-21T12:07:48;32.20;;;11.00;;
67352;SDS011;54238;52.278;21.056;2024-02-21T12:10:15;34.00;;;11.90;;
67352;SDS011;54238;52.278;21.056;2024-02-21T12:12:44;29.20;;;12.20;;
67352;SDS011;54238;52.278;21.056;2024-02-21T12:15:11;35.60;;;12.80;;
67352;SDS011;54238;52.278;21.056;2024-02-21T12:17:42;35.40;;;12.30;;
67352;SDS011;54238;52.278;21.056;2024-02-21T12:20:12;29.80;;;12.30;;
67352;SDS011;54238;52.278;21.056;2024-02-21T12:22:42;30.70;;;11.80;;
67352;SDS011;54238;52.278;21.056;2024-02-21T12:25:18;37.20;;;13.30;;
67352;SDS011;54238;52.278;21.056;2024-02-21T12:27:46;25.40;;;12.10;;
67352;SDS011;54238;52.278;21.056;2024-02-21T12:30:21;32.30;;;12.70;;
67352;SDS011;54238;52.278;21.056;2024-02-21T12:32:53;25.50;;;10.70;;
67352;SDS011;54238;52.278;21.056;2024-02-21T12:35:20;21.60;;;9.20;;
67352;SDS011;54238;52.278;21.056;2024-02-21T12:37:47;24.50;;;10.80;;
67352;SDS011;54238;52.278;21.056;2024-02-21T12:40:19;28.10;;;12.10;;
67352;SDS011;54238;52.278;21.056;2024-02-21T12:42:48;26.10;;;12.30;;
67352;SDS011;54238;52.278;21.056;2024-02-21T12:45:15;22.90;;;11.20;;
67352;SDS011;54238;52.278;21.056;2024-02-21T12:47:46;26.20;;;12.70;;
67352;SDS011;54238;52.278;21.056;2024-02-21T12:50:13;29.50;;;12.70;;
67352;SDS011;54238;52.278;21.056;2024-02-21T12:52:45;26.80;;;10.60;;
67352;SDS011;54238;52.278;21.056;2024-02-21T12:55:15;28.90;;;11.50;;
67352;SDS011;54238;52.278;21.056;2024-02-21T12:57:43;30.60;;;13.40;;
67352;SDS011;54238;52.278;21.056;2024-02-21T13:00:11;26.70;;;11.30;;
67352;SDS011;54238;52.278;21.056;2024-02-21T13:02:43;31.40;;;13.10;;
67352;SDS011;54238;52.278;21.056;2024-02-21T13:05:13;26.30;;;11.70;;
67352;SDS011;54238;52.278;21.056;2024-02-21T13:07:40;32.70;;;11.20;;
67352;SDS011;54238;52.278;21.056;2024-02-21T13:10:09;27.50;;;12.00;;
67352;SDS011;54238;52.278;21.056;2024-02-21T13:12:36;26.80;;;11.10;;
67352;SDS011;54238;52.278;21.056;2024-02-21T13:15:09;21.40;;;11.00;;
67352;SDS011;54238;52.278;21.056;2024-02-21T13:17:43;23.70;;;11.20;;
67352;SDS011;54238;52.278;21.056;2024-02-21T13:20:11;30.70;;;11.90;;
67352;SDS011;54238;52.278;21.056;2024-02-21T13:22:41;26.30;;;11.80;;
67352;SDS011;54238;52.278;21.056;2024-02-21T13:25:13;29.20;;;11.00;;
67352;SDS011;54238;52.278;21.056;2024-02-21T13:27:47;30.10;;;11.70;;
67352;SDS011;54238;52.278;21.056;2024-02-21T13:30:15;21.20;;;10.60;;
67352;SDS011;54238;52.278;21.056;2024-02-21T13:32:42;26.00;;;11.70;;
67352;SDS011;54238;52.278;21.056;2024-02-21T13:35:12;28.50;;;11.50;;
67352;SDS011;54238;52.278;21.056;2024-02-21T13:37:42;26.90;;;11.30;;
67352;SDS011;54238;52.278;21.056;2024-02-21T13:40:14;23.20;;;10.00;;
67352;SDS011;54238;52.278;21.056;2024-02-21T13:42:43;22.50;;;10.80;;
67352;SDS011;54238;52.278;21.056;2024-02-21T13:45:11;23.40;;;10.40;;
67352;SDS011;54238;52.278;21.056;2024-02-21T13:47:41;28.90;;;10.20;;
67352;SDS011;54238;52.278;21.056;2024-02-21T13:50:08;22.00;;;9.00;;
67352;SDS011;54238;52.278;21.056;2024-02-21T13:52:43;23.60;;;9.00;;
67352;SDS011;54238;52.278;21.056;2024-02-21T13:55:10;28.80;;;10.50;;
67352;SDS011;54238;52.278;21.056;2024-02-21T13:57:42;23.20;;;11.20;;
67352;SDS011;54238;52.278;21.056;2024-02-21T14:00:14;25.40;;;10.10;;
67352;SDS011;54238;52.278;21.056;2024-02-21T14:02:46;26.40;;;9.60;;
67352;SDS011;54238;52.278;21.056;2024-02-21T14:05:15;28.60;;;11.50;;
67352;SDS011;54238;52.278;21.056;2024-02-21T14:07:44;26.50;;;10.70;;
67352;SDS011;54238;52.278;21.056;2024-02-21T14:10:14;22.50;;;10.00;;
67352;SDS011;54238;52.278;21.056;2024-02-21T14:12:46;29.20;;;10.90;;
67352;SDS011;54238;52.278;21.056;2024-02-21T14:15:14;24.70;;;10.60;;
67352;SDS011;54238;52.278;21.056;2024-02-21T14:17:43;25.10;;;10.70;;
67352;SDS011;54238;52.278;21.056;2024-02-21T14:20:12;23.30;;;10.00;;
67352;SDS011;54238;52.278;21.056;2024-02-21T14:22:41;27.30;;;10.60;;
67352;SDS011;54238;52.278;21.056;2024-02-21T14:25:10;18.50;;;8.20;;
67352;SDS011;54238;52.278;21.056;2024-02-21T14:27:41;21.90;;;9.90;;
67352;SDS011;54238;52.278;21.056;2024-02-21T14:30:10;25.80;;;9.50;;
67352;SDS011;54238;52.278;21.056;2024-02-21T14:32:43;19.60;;;8.40;;
67352;SDS011;54238;52.278;21.056;2024-02-21T14:35:13;21.60;;;9.60;;
67352;SDS011;54238;52.278;21.056;2024-02-21T14:37:43;26.10;;;9.20;;
67352;SDS011;54238;52.278;21.056;2024-02-21T14:40:13;18.70;;;9.10;;